sensor_id;sensor_type;location;lat;lon;timestamp;pressure;altitude;pressure_sealevel;temperature;humidity
63405;BME280;49541;57.840;12.306;2022-09-30T00:04:43;100027.13;;;5.77;73.34
63405;BME280;49541;57.840;12.306;2022-09-30T00:09:43;100026.88;;;5.44;73.63
63405;BME280;49541;57.840;12.306;2022-09-30T00:14:43;100036.81;;;5.41;75.00
63405;BME280;49541;57.840;12.306;2022-09-30T00:19:43;100029.72;;;5.65;73.91
63405;BME280;49541;57.840;12.306;2022-09-30T00:24:44;100037.09;;;5.49;74.21
63405;BME280;49541;57.840;12.306;2022-09-30T00:29:45;100039.34;;;5.66;74.13
63405;BME280;49541;57.840;12.306;2022-09-30T00:34:45;100039.75;;;5.49;74.21
63405;BME280;49541;57.840;12.306;2022-09-30T00:39:46;100032.41;;;5.77;73.92
63405;BME280;49541;57.840;12.306;2022-09-30T00:44:47;100027.34;;;6.20;72.10
63405;BME280;49541;57.840;12.306;2022-09-30T00:49:49;100031.91;;;6.29;70.73
63405;BME280;49541;57.840;12.306;2022-09-30T00:54:51;100035.03;;;6.34;68.91
63405;BME280;49541;57.840;12.306;2022-09-30T00:59:52;100023.03;;;5.72;69.66
63405;BME280;49541;57.840;12.306;2022-09-30T01:04:52;100030.69;;;5.64;69.78
63405;BME280;49541;57.840;12.306;2022-09-30T01:09:53;100034.97;;;5.89;68.49
63405;BME280;49541;57.840;12.306;2022-09-30T01:14:54;100032.88;;;5.70;68.92
63405;BME280;49541;57.840;12.306;2022-09-30T01:25:02;100024.22;;;5.68;68.65
63405;BME280;49541;57.840;12.306;2022-09-30T01:35:34;100027.56;;;5.11;69.95
63405;BME280;49541;57.840;12.306;2022-09-30T01:40:44;100022.22;;;5.00;70.35
63405;BME280;49541;57.840;12.306;2022-09-30T01:45:54;100023.97;;;5.12;69.48
63405;BME280;49541;57.840;12.306;2022-09-30T02:01:16;100031.25;;;5.57;67.74
63405;BME280;49541;57.840;12.306;2022-09-30T02:06:19;100036.19;;;5.13;68.31
63405;BME280;49541;57.840;12.306;2022-09-30T02:11:24;100032.47;;;4.91;69.34
63405;BME280;49541;57.840;12.306;2022-09-30T02:16:27;100028.09;;;4.66;69.52
63405;BME280;49541;57.840;12.306;2022-09-30T02:21:31;100028.84;;;4.56;70.94
63405;BME280;49541;57.840;12.306;2022-09-30T02:26:35;100027.50;;;4.63;70.51
63405;BME280;49541;57.840;12.306;2022-09-30T02:31:38;100036.00;;;5.03;69.16
63405;BME280;49541;57.840;12.306;2022-09-30T02:36:40;100033.53;;;4.89;70.40
63405;BME280;49541;57.840;12.306;2022-09-30T02:41:45;100028.34;;;4.63;71.24
63405;BME280;49541;57.840;12.306;2022-09-30T02:58:18;100027.31;;;4.27;74.26
63405;BME280;49541;57.840;12.306;2022-09-30T03:03:00;100029.59;;;4.58;73.40
63405;BME280;49541;57.840;12.306;2022-09-30T03:08:02;100039.41;;;5.53;69.77
63405;BME280;49541;57.840;12.306;2022-09-30T03:28:21;100050.34;;;4.75;72.46
63405;BME280;49541;57.840;12.306;2022-09-30T03:33:24;100052.47;;;4.70;73.24
63405;BME280;49541;57.840;12.306;2022-09-30T03:38:40;100059.94;;;4.76;73.28
63405;BME280;49541;57.840;12.306;2022-09-30T03:48:59;100078.06;;;4.93;72.51
63405;BME280;49541;57.840;12.306;2022-09-30T03:54:00;100080.81;;;4.92;72.26
63405;BME280;49541;57.840;12.306;2022-09-30T03:59:00;100087.50;;;5.09;71.67
63405;BME280;49541;57.840;12.306;2022-09-30T04:04:00;100088.13;;;4.76;72.32
63405;BME280;49541;57.840;12.306;2022-09-30T04:09:00;100102.31;;;4.99;71.53
63405;BME280;49541;57.840;12.306;2022-09-30T04:14:01;100099.59;;;4.87;71.37
63405;BME280;49541;57.840;12.306;2022-09-30T04:19:02;100101.09;;;4.66;71.64
63405;BME280;49541;57.840;12.306;2022-09-30T04:24:02;100111.88;;;4.76;72.08
63405;BME280;49541;57.840;12.306;2022-09-30T04:29:02;100120.94;;;4.84;70.80
63405;BME280;49541;57.840;12.306;2022-09-30T04:34:03;100125.72;;;5.03;70.37
63405;BME280;49541;57.840;12.306;2022-09-30T04:39:03;100130.94;;;4.54;72.13
63405;BME280;49541;57.840;12.306;2022-09-30T04:44:03;100126.06;;;4.99;71.09
63405;BME280;49541;57.840;12.306;2022-09-30T04:49:06;100118.63;;;4.28;73.52
63405;BME280;49541;57.840;12.306;2022-09-30T04:54:07;100127.59;;;3.86;73.86
63405;BME280;49541;57.840;12.306;2022-09-30T04:59:07;100122.41;;;4.37;72.94
63405;BME280;49541;57.840;12.306;2022-09-30T05:04:07;100123.34;;;4.49;74.07
63405;BME280;49541;57.840;12.306;2022-09-30T05:09:08;100122.94;;;4.55;75.40
63405;BME280;49541;57.840;12.306;2022-09-30T05:14:09;100121.09;;;4.94;75.49
63405;BME280;49541;57.840;12.306;2022-09-30T05:19:09;100117.56;;;4.82;75.91
63405;BME280;49541;57.840;12.306;2022-09-30T05:24:09;100112.38;;;4.81;76.77
63405;BME280;49541;57.840;12.306;2022-09-30T05:29:10;100117.91;;;4.52;76.79
63405;BME280;49541;57.840;12.306;2022-09-30T05:34:10;100111.00;;;4.75;77.66
63405;BME280;49541;57.840;12.306;2022-09-30T05:39:10;100119.91;;;5.11;77.33
63405;BME280;49541;57.840;12.306;2022-09-30T05:44:10;100126.22;;;5.21;77.00
63405;BME280;49541;57.840;12.306;2022-09-30T05:49:11;100122.19;;;5.52;77.50
63405;BME280;49541;57.840;12.306;2022-09-30T05:54:11;100128.59;;;5.98;75.39
63405;BME280;49541;57.840;12.306;2022-09-30T05:59:11;100118.66;;;5.89;76.21
63405;BME280;49541;57.840;12.306;2022-09-30T06:04:12;100121.28;;;5.89;77.38
63405;BME280;49541;57.840;12.306;2022-09-30T06:09:12;100121.81;;;5.94;77.47
63405;BME280;49541;57.840;12.306;2022-09-30T06:14:12;100122.97;;;5.79;79.19
63405;BME280;49541;57.840;12.306;2022-09-30T06:19:12;100119.94;;;5.96;79.23
63405;BME280;49541;57.840;12.306;2022-09-30T06:24:13;100123.97;;;6.24;79.34
63405;BME280;49541;57.840;12.306;2022-09-30T06:29:13;100132.28;;;5.95;81.22
63405;BME280;49541;57.840;12.306;2022-09-30T06:34:13;100133.47;;;6.27;81.47
63405;BME280;49541;57.840;12.306;2022-09-30T06:39:14;100138.56;;;6.52;80.95
63405;BME280;49541;57.840;12.306;2022-09-30T06:44:14;100130.66;;;6.75;81.18
63405;BME280;49541;57.840;12.306;2022-09-30T06:49:14;100118.69;;;7.37;79.68
63405;BME280;49541;57.840;12.306;2022-09-30T06:54:15;100126.56;;;7.27;80.26
63405;BME280;49541;57.840;12.306;2022-09-30T06:59:15;100133.84;;;7.78;80.18
63405;BME280;49541;57.840;12.306;2022-09-30T07:04:16;100137.59;;;7.87;80.11
63405;BME280;49541;57.840;12.306;2022-09-30T07:09:16;100135.22;;;7.73;80.73
63405;BME280;49541;57.840;12.306;2022-09-30T07:14:16;100126.66;;;7.69;81.55
63405;BME280;49541;57.840;12.306;2022-09-30T07:19:17;100116.13;;;7.90;81.55
63405;BME280;49541;57.840;12.306;2022-09-30T07:24:21;100116.66;;;8.26;81.50
63405;BME280;49541;57.840;12.306;2022-09-30T07:29:21;100101.16;;;8.43;80.49
63405;BME280;49541;57.840;12.306;2022-09-30T07:34:21;100099.97;;;8.87;79.31
63405;BME280;49541;57.840;12.306;2022-09-30T07:39:22;100101.41;;;8.60;80.49
63405;BME280;49541;57.840;12.306;2022-09-30T07:44:22;100086.41;;;8.80;80.43
63405;BME280;49541;57.840;12.306;2022-09-30T07:49:24;100083.38;;;8.95;80.64
63405;BME280;49541;57.840;12.306;2022-09-30T07:54:25;100083.19;;;9.27;81.15
63405;BME280;49541;57.840;12.306;2022-09-30T07:59:26;100098.34;;;9.75;79.69
63405;BME280;49541;57.840;12.306;2022-09-30T08:04:27;100100.97;;;10.14;77.50
63405;BME280;49541;57.840;12.306;2022-09-30T08:09:28;100104.31;;;10.07;76.96
63405;BME280;49541;57.840;12.306;2022-09-30T08:14:29;100094.56;;;10.07;75.58
63405;BME280;49541;57.840;12.306;2022-09-30T08:19:29;100094.94;;;10.12;75.56
63405;BME280;49541;57.840;12.306;2022-09-30T08:24:30;100097.91;;;10.09;75.59
63405;BME280;49541;57.840;12.306;2022-09-30T08:29:30;100113.84;;;10.48;75.67
63405;BME280;49541;57.840;12.306;2022-09-30T08:34:30;100109.84;;;10.72;74.26
63405;BME280;49541;57.840;12.306;2022-09-30T08:39:34;100110.03;;;10.41;74.00
63405;BME280;49541;57.840;12.306;2022-09-30T08:44:44;100105.03;;;10.85;74.46
63405;BME280;49541;57.840;12.306;2022-09-30T08:50:09;100107.22;;;10.99;74.95
63405;BME280;49541;57.840;12.306;2022-09-30T08:55:15;100119.88;;;11.61;73.93
63405;BME280;49541;57.840;12.306;2022-09-30T09:00:18;100120.19;;;11.76;72.14
63405;BME280;49541;57.840;12.306;2022-09-30T09:10:44;100105.00;;;12.82;69.41
63405;BME280;49541;57.840;12.306;2022-09-30T09:16:00;100103.28;;;13.07;66.60
63405;BME280;49541;57.840;12.306;2022-09-30T09:26:09;100105.38;;;14.13;65.13
63405;BME280;49541;57.840;12.306;2022-09-30T09:31:14;100106.09;;;14.88;61.67
63405;BME280;49541;57.840;12.306;2022-09-30T09:46:26;100086.81;;;15.86;57.89
63405;BME280;49541;57.840;12.306;2022-09-30T09:51:30;100090.25;;;16.18;56.08
63405;BME280;49541;57.840;12.306;2022-09-30T09:56:32;100092.28;;;16.84;51.97
63405;BME280;49541;57.840;12.306;2022-09-30T10:01:33;100086.47;;;17.31;49.11
63405;BME280;49541;57.840;12.306;2022-09-30T10:06:44;100076.94;;;17.14;49.47
63405;BME280;49541;57.840;12.306;2022-09-30T10:11:44;100062.28;;;17.53;49.54
63405;BME280;49541;57.840;12.306;2022-09-30T10:16:45;100071.09;;;17.83;47.62
63405;BME280;49541;57.840;12.306;2022-09-30T10:21:45;100065.56;;;18.41;45.79
63405;BME280;49541;57.840;12.306;2022-09-30T10:26:45;100070.88;;;18.62;45.08
63405;BME280;49541;57.840;12.306;2022-09-30T10:31:46;100057.06;;;18.72;45.66
63405;BME280;49541;57.840;12.306;2022-09-30T10:36:46;100057.56;;;19.37;43.48
63405;BME280;49541;57.840;12.306;2022-09-30T10:41:47;100058.81;;;19.48;42.95
63405;BME280;49541;57.840;12.306;2022-09-30T10:46:48;100050.00;;;20.14;41.01
63405;BME280;49541;57.840;12.306;2022-09-30T10:51:49;100050.63;;;19.96;43.36
63405;BME280;49541;57.840;12.306;2022-09-30T10:56:51;100038.91;;;20.76;41.29
63405;BME280;49541;57.840;12.306;2022-09-30T11:01:53;100034.41;;;20.10;42.91
63405;BME280;49541;57.840;12.306;2022-09-30T11:12:19;100037.25;;;20.68;39.39
63405;BME280;49541;57.840;12.306;2022-09-30T11:17:24;100024.84;;;20.27;39.40
63405;BME280;49541;57.840;12.306;2022-09-30T11:27:43;100026.28;;;21.78;37.18
63405;BME280;49541;57.840;12.306;2022-09-30T11:37:56;100021.06;;;20.48;38.64
63405;BME280;49541;57.840;12.306;2022-09-30T11:53:37;100016.22;;;18.06;45.18
63405;BME280;49541;57.840;12.306;2022-09-30T11:58:42;100010.47;;;17.87;46.25
63405;BME280;49541;57.840;12.306;2022-09-30T12:03:43;99999.84;;;17.36;46.86
63405;BME280;49541;57.840;12.306;2022-09-30T12:08:49;100003.47;;;17.71;45.93
63405;BME280;49541;57.840;12.306;2022-09-30T12:13:57;100002.25;;;17.74;47.84
63405;BME280;49541;57.840;12.306;2022-09-30T12:19:02;99997.69;;;18.24;46.13
63405;BME280;49541;57.840;12.306;2022-09-30T12:24:21;99997.63;;;18.87;44.10
63405;BME280;49541;57.840;12.306;2022-09-30T12:35:08;99990.53;;;20.93;40.66
63405;BME280;49541;57.840;12.306;2022-09-30T12:50:57;99976.56;;;19.17;42.64
63405;BME280;49541;57.840;12.306;2022-09-30T12:56:01;99967.00;;;19.08;41.60
63405;BME280;49541;57.840;12.306;2022-09-30T13:06:02;99950.94;;;18.38;44.58
63405;BME280;49541;57.840;12.306;2022-09-30T13:11:05;99947.31;;;18.18;47.24
63405;BME280;49541;57.840;12.306;2022-09-30T13:16:07;99936.31;;;18.61;46.31
63405;BME280;49541;57.840;12.306;2022-09-30T13:27:05;99949.25;;;16.88;54.26
63405;BME280;49541;57.840;12.306;2022-09-30T13:46:55;99928.75;;;17.24;57.25
63405;BME280;49541;57.840;12.306;2022-09-30T13:51:57;99929.03;;;17.14;57.57
63405;BME280;49541;57.840;12.306;2022-09-30T13:56:58;99922.84;;;19.49;52.36
63405;BME280;49541;57.840;12.306;2022-09-30T14:12:33;99922.03;;;18.19;54.49
63405;BME280;49541;57.840;12.306;2022-09-30T14:22:49;99903.47;;;17.74;55.77
63405;BME280;49541;57.840;12.306;2022-09-30T14:33:09;99890.53;;;17.56;57.08
63405;BME280;49541;57.840;12.306;2022-09-30T14:38:16;99884.50;;;17.54;57.64
63405;BME280;49541;57.840;12.306;2022-09-30T14:43:22;99880.34;;;17.52;58.19
63405;BME280;49541;57.840;12.306;2022-09-30T14:48:24;99868.41;;;17.89;57.51
63405;BME280;49541;57.840;12.306;2022-09-30T14:53:30;99858.84;;;18.28;55.08
63405;BME280;49541;57.840;12.306;2022-09-30T14:58:38;99851.41;;;18.30;54.21
63405;BME280;49541;57.840;12.306;2022-09-30T15:03:39;99856.03;;;17.67;55.58
63405;BME280;49541;57.840;12.306;2022-09-30T15:08:40;99847.66;;;18.18;55.53
63405;BME280;49541;57.840;12.306;2022-09-30T15:13:40;99850.22;;;20.33;50.23
63405;BME280;49541;57.840;12.306;2022-09-30T15:18:43;99854.34;;;21.62;45.86
63405;BME280;49541;57.840;12.306;2022-09-30T15:23:46;99850.50;;;21.70;45.22
63405;BME280;49541;57.840;12.306;2022-09-30T15:28:50;99828.28;;;20.02;48.82
63405;BME280;49541;57.840;12.306;2022-09-30T15:34:13;99830.78;;;18.57;52.03
63405;BME280;49541;57.840;12.306;2022-09-30T15:39:25;99826.56;;;17.87;53.62
63405;BME280;49541;57.840;12.306;2022-09-30T15:44:46;99820.09;;;17.81;54.50
63405;BME280;49541;57.840;12.306;2022-09-30T15:49:47;99810.28;;;17.10;56.55
63405;BME280;49541;57.840;12.306;2022-09-30T15:54:52;99820.63;;;17.35;55.90
63405;BME280;49541;57.840;12.306;2022-09-30T15:59:59;99817.09;;;17.06;57.12
63405;BME280;49541;57.840;12.306;2022-09-30T16:05:01;99804.06;;;16.67;58.18
63405;BME280;49541;57.840;12.306;2022-09-30T16:10:01;99809.63;;;16.44;59.51
63405;BME280;49541;57.840;12.306;2022-09-30T16:25:27;99800.47;;;15.72;62.97
63405;BME280;49541;57.840;12.306;2022-09-30T16:30:29;99803.00;;;15.35;64.13
63405;BME280;49541;57.840;12.306;2022-09-30T16:35:31;99806.16;;;15.01;65.31
63405;BME280;49541;57.840;12.306;2022-09-30T16:40:33;99803.09;;;15.42;64.65
63405;BME280;49541;57.840;12.306;2022-09-30T16:45:34;99791.75;;;15.40;65.34
63405;BME280;49541;57.840;12.306;2022-09-30T16:55:41;99789.69;;;15.12;65.95
63405;BME280;49541;57.840;12.306;2022-09-30T17:00:42;99779.31;;;14.71;67.59
63405;BME280;49541;57.840;12.306;2022-09-30T17:05:44;99784.16;;;14.91;66.91
63405;BME280;49541;57.840;12.306;2022-09-30T17:10:45;99774.16;;;14.85;67.35
63405;BME280;49541;57.840;12.306;2022-09-30T17:15:49;99755.84;;;14.73;67.62
63405;BME280;49541;57.840;12.306;2022-09-30T17:20:50;99760.84;;;14.45;68.88
63405;BME280;49541;57.840;12.306;2022-09-30T17:25:51;99758.59;;;14.65;69.32
63405;BME280;49541;57.840;12.306;2022-09-30T17:30:53;99751.47;;;14.26;69.79
63405;BME280;49541;57.840;12.306;2022-09-30T17:36:00;99758.00;;;14.47;68.38
63405;BME280;49541;57.840;12.306;2022-09-30T17:41:01;99759.16;;;13.98;70.86
63405;BME280;49541;57.840;12.306;2022-09-30T17:46:20;99747.22;;;14.09;70.71
63405;BME280;49541;57.840;12.306;2022-09-30T17:51:22;99746.25;;;14.33;69.82
63405;BME280;49541;57.840;12.306;2022-09-30T17:56:22;99761.78;;;13.75;71.45
63405;BME280;49541;57.840;12.306;2022-09-30T18:01:23;99751.59;;;14.02;71.53
63405;BME280;49541;57.840;12.306;2022-09-30T18:06:23;99748.38;;;13.83;71.50
63405;BME280;49541;57.840;12.306;2022-09-30T18:11:24;99752.31;;;13.56;72.67
63405;BME280;49541;57.840;12.306;2022-09-30T18:16:25;99751.03;;;13.19;73.98
63405;BME280;49541;57.840;12.306;2022-09-30T18:21:29;99730.81;;;13.33;74.03
63405;BME280;49541;57.840;12.306;2022-09-30T18:26:30;99749.44;;;13.66;72.72
63405;BME280;49541;57.840;12.306;2022-09-30T18:31:30;99741.50;;;13.33;73.22
63405;BME280;49541;57.840;12.306;2022-09-30T18:36:35;99742.16;;;13.43;73.14
63405;BME280;49541;57.840;12.306;2022-09-30T18:41:36;99740.34;;;13.27;73.61
63405;BME280;49541;57.840;12.306;2022-09-30T18:46:38;99727.16;;;13.34;73.36
63405;BME280;49541;57.840;12.306;2022-09-30T18:51:38;99727.16;;;13.34;73.58
63405;BME280;49541;57.840;12.306;2022-09-30T18:56:39;99728.66;;;13.28;73.34
63405;BME280;49541;57.840;12.306;2022-09-30T19:01:39;99721.19;;;12.99;74.35
63405;BME280;49541;57.840;12.306;2022-09-30T19:06:41;99715.47;;;13.19;73.88
63405;BME280;49541;57.840;12.306;2022-09-30T19:11:41;99726.97;;;13.36;74.25
63405;BME280;49541;57.840;12.306;2022-09-30T19:16:42;99722.34;;;13.69;72.94
63405;BME280;49541;57.840;12.306;2022-09-30T19:21:43;99721.16;;;13.16;75.19
63405;BME280;49541;57.840;12.306;2022-09-30T19:26:43;99714.53;;;12.95;76.35
63405;BME280;49541;57.840;12.306;2022-09-30T19:31:46;99715.13;;;13.38;75.06
63405;BME280;49541;57.840;12.306;2022-09-30T19:36:47;99705.81;;;13.01;76.58
63405;BME280;49541;57.840;12.306;2022-09-30T19:41:47;99698.03;;;12.67;78.72
63405;BME280;49541;57.840;12.306;2022-09-30T19:46:48;99693.91;;;13.37;75.55
63405;BME280;49541;57.840;12.306;2022-09-30T19:51:49;99694.41;;;13.24;76.87
63405;BME280;49541;57.840;12.306;2022-09-30T19:56:49;99701.22;;;13.43;76.24
63405;BME280;49541;57.840;12.306;2022-09-30T20:01:50;99702.53;;;13.47;76.65
63405;BME280;49541;57.840;12.306;2022-09-30T20:06:50;99692.56;;;13.32;77.45
63405;BME280;49541;57.840;12.306;2022-09-30T20:11:52;99691.63;;;13.01;78.64
63405;BME280;49541;57.840;12.306;2022-09-30T20:16:52;99688.69;;;13.43;77.18
63405;BME280;49541;57.840;12.306;2022-09-30T20:21:53;99683.81;;;13.55;76.24
63405;BME280;49541;57.840;12.306;2022-09-30T20:26:57;99681.94;;;13.08;78.56
63405;BME280;49541;57.840;12.306;2022-09-30T20:31:57;99684.38;;;13.34;78.07
63405;BME280;49541;57.840;12.306;2022-09-30T20:36:59;99691.19;;;13.45;77.45
63405;BME280;49541;57.840;12.306;2022-09-30T20:41:59;99688.31;;;13.46;77.56
63405;BME280;49541;57.840;12.306;2022-09-30T20:46:59;99680.22;;;13.31;77.68
63405;BME280;49541;57.840;12.306;2022-09-30T20:52:01;99680.69;;;13.27;77.80
63405;BME280;49541;57.840;12.306;2022-09-30T20:57:05;99676.75;;;13.06;79.00
63405;BME280;49541;57.840;12.306;2022-09-30T21:02:05;99681.44;;;13.04;77.67
63405;BME280;49541;57.840;12.306;2022-09-30T21:07:05;99682.28;;;12.97;78.05
63405;BME280;49541;57.840;12.306;2022-09-30T21:12:06;99678.47;;;12.75;78.86
63405;BME280;49541;57.840;12.306;2022-09-30T21:17:07;99673.81;;;12.60;78.90
63405;BME280;49541;57.840;12.306;2022-09-30T21:22:08;99676.66;;;12.50;78.61
63405;BME280;49541;57.840;12.306;2022-09-30T21:27:08;99673.84;;;12.52;78.28
63405;BME280;49541;57.840;12.306;2022-09-30T21:32:08;99673.00;;;12.43;77.52
63405;BME280;49541;57.840;12.306;2022-09-30T21:37:09;99676.81;;;12.65;76.80
63405;BME280;49541;57.840;12.306;2022-09-30T21:42:09;99682.00;;;12.67;76.69
63405;BME280;49541;57.840;12.306;2022-09-30T21:47:09;99682.94;;;12.99;75.42
63405;BME280;49541;57.840;12.306;2022-09-30T21:52:09;99677.19;;;12.46;76.35
63405;BME280;49541;57.840;12.306;2022-09-30T21:57:10;99655.13;;;12.68;76.90
63405;BME280;49541;57.840;12.306;2022-09-30T22:02:10;99670.16;;;12.78;76.69
63405;BME280;49541;57.840;12.306;2022-09-30T22:07:10;99669.78;;;12.81;77.54
63405;BME280;49541;57.840;12.306;2022-09-30T22:12:10;99668.16;;;12.72;77.92
63405;BME280;49541;57.840;12.306;2022-09-30T22:17:11;99668.38;;;13.18;77.22
63405;BME280;49541;57.840;12.306;2022-09-30T22:22:11;99666.78;;;12.84;78.28
63405;BME280;49541;57.840;12.306;2022-09-30T22:27:11;99660.22;;;13.03;77.54
63405;BME280;49541;57.840;12.306;2022-09-30T22:32:11;99652.44;;;13.41;75.78
63405;BME280;49541;57.840;12.306;2022-09-30T22:37:12;99652.41;;;12.93;77.66
63405;BME280;49541;57.840;12.306;2022-09-30T22:42:30;99642.63;;;12.36;80.06
63405;BME280;49541;57.840;12.306;2022-09-30T22:47:31;99663.78;;;12.70;78.09
63405;BME280;49541;57.840;12.306;2022-09-30T22:52:31;99650.72;;;13.00;78.23
63405;BME280;49541;57.840;12.306;2022-09-30T22:57:31;99647.47;;;12.57;80.07
63405;BME280;49541;57.840;12.306;2022-09-30T23:02:32;99637.75;;;12.73;79.69
63405;BME280;49541;57.840;12.306;2022-09-30T23:07:32;99626.28;;;12.39;79.71
63405;BME280;49541;57.840;12.306;2022-09-30T23:12:32;99620.59;;;12.26;79.91
63405;BME280;49541;57.840;12.306;2022-09-30T23:17:34;99623.81;;;12.13;79.11
63405;BME280;49541;57.840;12.306;2022-09-30T23:22:34;99621.38;;;12.84;77.38
63405;BME280;49541;57.840;12.306;2022-09-30T23:27:35;99610.44;;;12.54;78.02
63405;BME280;49541;57.840;12.306;2022-09-30T23:32:35;99611.03;;;12.73;78.75
63405;BME280;49541;57.840;12.306;2022-09-30T23:37:35;99601.28;;;12.24;79.00
63405;BME280;49541;57.840;12.306;2022-09-30T23:42:35;99598.88;;;12.78;78.28
63405;BME280;49541;57.840;12.306;2022-09-30T23:47:35;99595.75;;;12.34;79.43
63405;BME280;49541;57.840;12.306;2022-09-30T23:52:36;99593.09;;;12.42;79.49
63405;BME280;49541;57.840;12.306;2022-09-30T23:57:36;99589.38;;;12.59;78.29
